Aérodrome :
LOGIN :

S'inscrire | Disclaimer

   EN    FR    IT 

 










Légende :    VFR   VFR Marginal   IFR   IFR Intensif   IFR Très Intensif
Visi : 
Plafond : 
>= 8 km
>= 3000ft
5 à 8 km
1000 à 3000 ft
1500m à 5 km
500 à 1000 ft
800 à 1500m
200 à 500 ft
< 800m
< 200 ft
Symboles :   Orages  Brouillard  Fortes neiges  Fortes précipitations  Vent > 20 kt
SIGMETs :   Divers  Orages  Givrage  Turbulence  Onde Orograph.  Cendres Volcan.






- Altitude de l'aérodrome : 18 ft


LIPC - Cervia AFB Ravenna

DERNIER METAR :
  • 310655Z 28004KT CAVOK 16/12 Q1017 RMK BKN BKN100 VIS MIN 9999 WIND THR11 28003KT WIND THR29 29003KT BLU

METARs EXPIRÉS :
  • 310555Z 23004KT CAVOK 13/11 Q1016
  • 310455Z 29005KT CAVOK 13/11 Q1016 RMK BKN BKN110 VIS MIN 9999 WIND THR11 28005KT WIND THR29 29005KT BLU

TAF TAF LIPC
Valide du 31 à 06h jusqu'au 31 à 15h UTC


310500Z 3106/3115 05005KT 9999 BKN070



MET'MAP, la Météo Aéronautique d'un coup d'oeil ! - Copyright ORBIFLY Décembre 2007 - Disclaimer

ORBIFLY MET'MAP TEAM :

Programmation & Développement : Alexandra Zaïnal
Sur une idée originale de : Baudouin d'Aumeries
Assistance à la programmation : Marc-Olivier Méhu
Soutien technique & logistique : Manuel Goepfert

Contact : metmap@orbifly.com




SOURCES & CREDITS :

   NOAA